createdAt,value
2018-10-12T00:01:47.707Z,23.73
2018-10-12T00:04:16.366Z,22.97
2018-10-12T00:06:44.980Z,22.37
2018-10-12T00:09:13.615Z,23.07
2018-10-12T00:11:42.246Z,23.87
2018-10-12T00:14:10.847Z,25.43
2018-10-12T00:16:39.624Z,23.27
2018-10-12T00:19:08.241Z,24.67
2018-10-12T00:21:36.872Z,22.90
2018-10-12T00:24:05.523Z,23.80
2018-10-12T00:26:34.140Z,24.13
2018-10-12T00:29:02.795Z,25.47
2018-10-12T00:31:31.416Z,24.10
2018-10-12T00:34:00.045Z,23.40
2018-10-12T00:36:28.649Z,23.97
2018-10-12T00:38:57.267Z,24.60
2018-10-12T00:41:25.907Z,24.47
2018-10-12T00:43:54.572Z,25.07
2018-10-12T00:46:23.219Z,22.77
2018-10-12T00:48:51.843Z,21.83
2018-10-12T00:51:20.531Z,24.07
2018-10-12T00:53:49.200Z,23.73
2018-10-12T00:56:17.837Z,23.70
2018-10-12T00:58:46.468Z,24.70
2018-10-12T01:01:16.896Z,23.73
2018-10-12T01:03:45.530Z,21.90
2018-10-12T01:06:14.164Z,22.90
2018-10-12T01:08:42.803Z,27.03
2018-10-12T01:11:11.947Z,23.70
2018-10-12T01:13:40.671Z,22.50
2018-10-12T01:16:09.343Z,23.73
2018-10-12T01:18:38.112Z,23.83
2018-10-12T01:21:06.763Z,23.50
2018-10-12T01:23:35.432Z,23.40
2018-10-12T01:26:04.089Z,24.93
2018-10-12T01:28:32.836Z,24.63
2018-10-12T01:31:01.767Z,24.27
2018-10-12T01:33:30.366Z,24.50
2018-10-12T01:35:58.999Z,23.40
2018-10-12T01:38:27.638Z,22.40
2018-10-12T01:40:56.304Z,23.73
2018-10-12T01:43:25.000Z,22.70
2018-10-12T01:45:53.738Z,24.23
2018-10-12T01:48:22.370Z,25.47
2018-10-12T01:50:51.009Z,24.70
2018-10-12T01:53:19.615Z,23.40
2018-10-12T01:55:48.307Z,22.50
2018-10-12T01:58:16.932Z,21.70
2018-10-12T02:00:45.710Z,23.70
2018-10-12T02:03:14.799Z,23.33
2018-10-12T02:05:43.443Z,22.03
2018-10-12T02:08:12.070Z,23.13
2018-10-12T02:10:40.760Z,22.93
2018-10-12T02:13:09.395Z,23.20
2018-10-12T02:15:38.026Z,22.53
2018-10-12T02:18:06.698Z,23.10
2018-10-12T02:20:35.320Z,22.67
2018-10-12T02:23:04.001Z,23.90
2018-10-12T02:25:34.266Z,22.03
2018-10-12T02:28:02.867Z,22.07
2018-10-12T02:30:31.499Z,24.33
2018-10-12T02:33:00.165Z,23.60
2018-10-12T02:35:28.806Z,23.37
2018-10-12T02:37:57.465Z,22.63
2018-10-12T02:40:26.092Z,22.67
2018-10-12T02:42:54.755Z,24.07
2018-10-12T02:45:23.367Z,24.57
2018-10-12T02:47:51.980Z,23.00
2018-10-12T02:50:20.601Z,22.70
2018-10-12T02:52:49.211Z,24.90
2018-10-12T02:55:17.868Z,24.30
2018-10-12T02:57:46.528Z,24.30
2018-10-12T03:00:15.172Z,24.97
2018-10-12T03:02:43.760Z,23.97
2018-10-12T03:05:12.570Z,25.80
2018-10-12T03:07:41.234Z,24.60
2018-10-12T03:10:09.863Z,23.47
2018-10-12T03:12:38.521Z,26.20
2018-10-12T03:15:07.215Z,26.17
2018-10-12T03:17:35.840Z,24.57
2018-10-12T03:20:04.481Z,24.53
2018-10-12T03:22:33.435Z,25.27
2018-10-12T03:25:02.059Z,25.10
2018-10-12T03:27:30.999Z,25.77
2018-10-12T03:29:59.651Z,25.93
2018-10-12T03:32:28.307Z,26.57
2018-10-12T03:34:56.964Z,25.80
2018-10-12T03:37:25.640Z,25.10
2018-10-12T03:39:54.211Z,23.37
2018-10-12T03:42:22.871Z,24.80
2018-10-12T03:44:51.476Z,25.33
2018-10-12T03:47:20.087Z,23.83
2018-10-12T03:49:48.707Z,24.00
2018-10-12T03:52:17.359Z,24.67
2018-10-12T03:54:46.091Z,25.83
2018-10-12T03:57:14.721Z,23.47
2018-10-12T03:59:43.345Z,24.07
2018-10-12T04:02:11.940Z,25.00
2018-10-12T04:04:40.577Z,24.87
2018-10-12T04:07:09.211Z,25.10
2018-10-12T04:09:37.863Z,23.80
2018-10-12T04:12:06.501Z,24.47
2018-10-12T04:14:35.161Z,26.17
2018-10-12T04:17:03.763Z,25.13
2018-10-12T04:19:32.388Z,24.40
2018-10-12T04:22:01.016Z,24.73
2018-10-12T04:24:29.673Z,25.43
2018-10-12T04:26:58.286Z,27.53
2018-10-12T04:29:26.918Z,26.00
2018-10-12T04:31:55.540Z,25.47
2018-10-12T04:34:24.200Z,24.73
2018-10-12T04:36:52.839Z,24.97
2018-10-12T04:39:39.415Z,23.83
2018-10-12T04:42:08.032Z,26.23
2018-10-12T04:44:36.718Z,25.70
2018-10-12T04:47:05.730Z,26.70
2018-10-12T04:49:34.325Z,25.30
2018-10-12T04:52:02.944Z,25.67
2018-10-12T04:54:31.555Z,26.10
2018-10-12T04:57:00.207Z,25.73
2018-10-12T04:59:29.236Z,24.40
2018-10-12T05:01:57.923Z,24.33
2018-10-12T05:04:26.612Z,26.53
2018-10-12T05:06:55.320Z,25.27
2018-10-12T05:09:24.135Z,25.97
2018-10-12T05:11:52.807Z,26.33
2018-10-12T05:14:21.543Z,24.73
2018-10-12T05:16:50.312Z,26.17
2018-10-12T05:19:18.968Z,27.20
2018-10-12T05:21:47.576Z,27.23
2018-10-12T05:24:16.274Z,26.27
2018-10-12T05:26:44.994Z,26.33
2018-10-12T05:29:13.590Z,24.60
2018-10-12T05:31:42.263Z,26.90
2018-10-12T05:34:10.911Z,25.77
2018-10-12T05:36:39.528Z,26.33
2018-10-12T05:39:09.642Z,27.03
2018-10-12T05:41:38.266Z,28.33
2018-10-12T05:44:06.936Z,26.10
2018-10-12T05:46:36.649Z,25.37
2018-10-12T05:49:16.684Z,27.40
2018-10-12T05:51:45.313Z,27.87
2018-10-12T05:54:14.529Z,27.53
2018-10-12T05:56:43.404Z,24.90
2018-10-12T05:59:12.067Z,27.90
2018-10-12T06:01:41.589Z,28.83
2018-10-12T06:04:10.238Z,28.53
2018-10-12T06:06:38.884Z,27.87
2018-10-12T06:09:08.295Z,27.00
2018-10-12T06:11:36.924Z,28.20
2018-10-12T06:14:05.619Z,25.97
2018-10-12T06:16:34.225Z,26.80
2018-10-12T06:19:02.911Z,26.87
2018-10-12T06:21:32.688Z,26.50
2018-10-12T06:24:01.342Z,26.70
2018-10-12T06:26:29.990Z,26.77
2018-10-12T06:28:58.643Z,26.70
2018-10-12T06:31:27.301Z,26.53
2018-10-12T06:33:56.111Z,27.70
2018-10-12T06:36:24.939Z,27.70
2018-10-12T06:38:53.639Z,27.10
2018-10-12T06:41:22.446Z,26.37
2018-10-12T06:43:51.086Z,27.43
2018-10-12T06:46:19.804Z,27.77
2018-10-12T06:48:48.634Z,25.27
2018-10-12T06:51:17.395Z,25.80
2018-10-12T06:53:46.314Z,26.77
2018-10-12T06:56:14.992Z,27.60
2018-10-12T06:58:44.919Z,26.17
2018-10-12T07:01:13.763Z,26.50
2018-10-12T07:03:42.956Z,26.03
2018-10-12T07:06:12.866Z,24.37
2018-10-12T07:08:41.674Z,26.90
2018-10-12T07:11:10.640Z,24.30
2018-10-12T07:13:39.306Z,24.40
2018-10-12T07:16:08.209Z,25.17
2018-10-12T07:18:36.916Z,24.70
2018-10-12T07:21:05.551Z,26.73
2018-10-12T07:23:34.237Z,25.30
2018-10-12T07:26:02.986Z,24.33
2018-10-12T07:28:31.607Z,25.17
2018-10-12T07:31:00.228Z,25.63
2018-10-12T07:33:28.856Z,26.30
2018-10-12T07:35:57.479Z,25.13
2018-10-12T07:38:26.349Z,25.50
2018-10-12T07:40:55.043Z,25.93
2018-10-12T07:43:23.700Z,25.17
2018-10-12T07:45:52.352Z,24.63
2018-10-12T07:48:20.970Z,25.73
2018-10-12T07:50:50.029Z,25.33
2018-10-12T07:53:18.811Z,27.70
2018-10-12T07:55:47.307Z,25.73
2018-10-12T07:58:15.932Z,27.00
2018-10-12T08:00:44.642Z,25.83
2018-10-12T08:03:13.263Z,26.90
2018-10-12T08:05:41.979Z,25.73
2018-10-12T08:08:10.599Z,25.50
2018-10-12T08:10:39.283Z,26.10
2018-10-12T08:13:07.919Z,26.10
2018-10-12T08:15:36.713Z,26.33
2018-10-12T08:18:05.381Z,26.27
2018-10-12T08:20:34.285Z,28.13
2018-10-12T08:23:02.818Z,28.23
2018-10-12T08:25:31.476Z,25.60
2018-10-12T08:28:00.172Z,25.87
2018-10-12T08:30:28.890Z,26.57
2018-10-12T08:32:57.583Z,25.90
2018-10-12T08:35:26.200Z,26.70
2018-10-12T08:37:54.896Z,26.00
2018-10-12T08:40:23.559Z,26.73
2018-10-12T08:42:52.345Z,24.70
2018-10-12T08:45:20.975Z,24.57
2018-10-12T08:47:49.596Z,23.80
2018-10-12T08:50:18.259Z,24.90
2018-10-12T08:52:46.932Z,25.53
2018-10-12T08:55:16.038Z,24.77
2018-10-12T08:57:44.954Z,23.80
2018-10-12T09:00:14.128Z,25.47
2018-10-12T09:02:42.793Z,22.07
2018-10-12T09:05:11.416Z,22.13
2018-10-12T09:07:40.106Z,22.30
2018-10-12T09:10:09.127Z,22.53
2018-10-12T09:12:38.334Z,21.60
2018-10-12T09:15:07.180Z,22.27
2018-10-12T09:17:36.161Z,21.20
2018-10-12T09:20:05.053Z,23.57
2018-10-12T09:22:33.751Z,21.50
2018-10-12T09:25:02.526Z,22.03
2018-10-12T09:27:31.204Z,22.67
2018-10-12T09:29:59.810Z,22.10
2018-10-12T09:32:28.523Z,22.60
2018-10-12T09:34:57.124Z,22.37
2018-10-12T09:37:26.555Z,20.47
2018-10-12T09:39:55.384Z,21.07
2018-10-12T09:42:24.319Z,22.60
2018-10-12T09:44:53.422Z,22.43
2018-10-12T09:47:22.207Z,22.33
2018-10-12T09:49:50.842Z,21.70
2018-10-12T09:52:19.529Z,20.63
2018-10-12T09:54:48.163Z,20.70
2018-10-12T09:57:22.231Z,22.17
2018-10-12T09:59:50.894Z,20.27
2018-10-12T10:02:23.437Z,19.90
2018-10-12T10:04:52.051Z,19.33
2018-10-12T10:07:20.701Z,21.60
2018-10-12T10:09:49.335Z,19.93
2018-10-12T10:12:18.015Z,20.37
2018-10-12T10:14:46.680Z,19.37
2018-10-12T10:17:15.306Z,20.27
2018-10-12T10:19:43.994Z,20.00
2018-10-12T10:22:21.239Z,20.47
2018-10-12T10:24:50.447Z,18.77
2018-10-12T10:27:19.065Z,19.00
2018-10-12T10:29:47.747Z,20.23
2018-10-12T10:32:16.498Z,18.77
2018-10-12T10:34:45.124Z,19.20
2018-10-12T10:37:13.783Z,19.90
2018-10-12T10:39:42.510Z,19.30
2018-10-12T10:42:11.516Z,20.83
2018-10-12T10:44:40.148Z,20.33
2018-10-12T10:47:09.096Z,19.03
2018-10-12T10:49:37.842Z,17.63
2018-10-12T10:52:06.611Z,18.10
2018-10-12T10:54:35.269Z,19.97
2018-10-12T10:57:06.039Z,18.43
2018-10-12T10:59:35.863Z,17.67
2018-10-12T11:02:04.627Z,18.50
2018-10-12T11:04:33.835Z,19.50
2018-10-12T11:07:03.219Z,16.73
2018-10-12T11:09:31.933Z,17.70
2018-10-12T11:12:00.623Z,18.93
2018-10-12T11:14:29.327Z,18.20
2018-10-12T11:16:58.019Z,18.40
2018-10-12T11:19:26.662Z,18.20
2018-10-12T11:21:55.871Z,16.77
2018-10-12T11:24:24.668Z,16.63
2018-10-12T11:26:53.266Z,17.40
2018-10-12T11:29:22.491Z,17.97
2018-10-12T11:31:51.147Z,16.83
2018-10-12T11:34:19.869Z,16.40
2018-10-12T11:36:48.534Z,17.53
2018-10-12T11:39:17.267Z,16.30
2018-10-12T11:41:46.131Z,20.13
2018-10-12T11:44:14.879Z,18.20
2018-10-12T11:46:43.544Z,18.33
2018-10-12T11:49:12.235Z,15.37
2018-10-12T11:51:40.991Z,16.83
2018-10-12T11:54:09.628Z,15.63
2018-10-12T11:56:39.138Z,15.87
2018-10-12T11:59:07.977Z,14.90
2018-10-12T12:01:36.765Z,16.60
2018-10-12T12:04:05.716Z,16.00
2018-10-12T12:06:34.395Z,15.97
2018-10-12T12:09:03.157Z,16.60
2018-10-12T12:11:32.002Z,16.73
2018-10-12T12:14:00.763Z,16.00
2018-10-12T12:16:29.429Z,15.57
2018-10-12T12:18:58.188Z,16.43
2018-10-12T12:21:26.921Z,15.80
2018-10-12T12:23:55.689Z,15.40
2018-10-12T12:26:24.299Z,14.97
2018-10-12T12:28:52.980Z,15.97
2018-10-12T12:31:21.637Z,15.83
2018-10-12T12:33:50.289Z,14.90
2018-10-12T12:36:18.952Z,15.23
2018-10-12T12:38:47.603Z,17.00
2018-10-12T12:41:16.239Z,14.57
2018-10-12T12:43:45.819Z,16.10
2018-10-12T12:46:15.354Z,15.00
2018-10-12T12:48:44.447Z,15.33
2018-10-12T12:51:13.122Z,15.10
2018-10-12T12:53:42.365Z,14.73
2018-10-12T12:56:11.535Z,13.97
2018-10-12T12:58:40.191Z,15.40
2018-10-12T13:01:09.109Z,13.83
2018-10-12T13:03:37.753Z,15.30
2018-10-12T13:06:06.454Z,14.10
2018-10-12T13:08:35.070Z,15.57
2018-10-12T13:11:03.728Z,14.77
2018-10-12T13:13:32.375Z,14.47
2018-10-12T13:16:01.052Z,14.40
2018-10-12T13:18:30.069Z,13.90
2018-10-12T13:20:58.783Z,14.03
2018-10-12T13:23:27.615Z,13.90
2018-10-12T13:25:56.347Z,13.20
2018-10-12T13:28:24.835Z,13.17
2018-10-12T13:30:53.579Z,14.00
2018-10-12T13:33:22.297Z,13.47
2018-10-12T13:35:50.925Z,14.20
2018-10-12T13:38:19.577Z,13.20
2018-10-12T13:40:48.260Z,12.03
2018-10-12T13:43:16.902Z,12.67
2018-10-12T13:45:45.520Z,14.40
2018-10-12T13:48:14.198Z,13.10
2018-10-12T13:50:42.810Z,13.23
2018-10-12T13:53:11.479Z,12.00
2018-10-12T13:55:40.127Z,12.70
2018-10-12T13:58:08.774Z,12.90
2018-10-12T14:00:37.440Z,12.70
2018-10-12T14:03:06.087Z,12.50
2018-10-12T14:05:34.709Z,13.10
2018-10-12T14:08:03.334Z,13.60
2018-10-12T14:10:31.975Z,14.57
2018-10-12T14:13:00.640Z,12.30
2018-10-12T14:15:29.256Z,12.50
2018-10-12T14:17:57.941Z,12.70
2018-10-12T14:20:26.612Z,12.97
2018-10-12T14:22:55.268Z,12.27
2018-10-12T14:25:23.983Z,11.53
2018-10-12T14:27:52.804Z,13.40
2018-10-12T14:30:21.415Z,13.50
2018-10-12T14:32:50.096Z,13.27
2018-10-12T14:35:19.975Z,13.73
2018-10-12T14:37:48.653Z,12.37
2018-10-12T14:40:17.491Z,12.50
2018-10-12T14:42:46.210Z,12.90
2018-10-12T14:45:15.046Z,11.70
2018-10-12T14:47:43.718Z,12.40
2018-10-12T14:50:12.570Z,12.40
2018-10-12T14:52:41.230Z,11.97
2018-10-12T14:55:10.001Z,11.83
2018-10-12T14:57:38.707Z,13.10
2018-10-12T15:00:08.868Z,11.90
2018-10-12T15:02:38.043Z,11.90
2018-10-12T15:05:07.105Z,11.33
2018-10-12T15:07:35.819Z,11.67
2018-10-12T15:10:04.958Z,12.73
2018-10-12T15:12:33.922Z,13.40
2018-10-12T15:15:25.008Z,13.00
2018-10-12T15:17:54.617Z,10.83
2018-10-12T15:20:23.645Z,11.53
2018-10-12T15:22:52.290Z,11.93
2018-10-12T15:25:21.767Z,11.30
2018-10-12T15:27:50.893Z,11.47
2018-10-12T15:30:19.903Z,10.40
2018-10-12T15:32:48.574Z,10.77
2018-10-12T15:35:17.199Z,11.10
2018-10-12T15:37:46.092Z,10.70
2018-10-12T15:40:14.600Z,11.00
2018-10-12T15:42:43.346Z,11.10
2018-10-12T15:45:11.937Z,12.10
2018-10-12T15:47:40.612Z,11.80
2018-10-12T15:50:09.274Z,12.20
2018-10-12T15:52:37.919Z,11.60
2018-10-12T15:55:06.717Z,12.87
2018-10-12T15:57:35.388Z,11.77
2018-10-12T16:00:04.133Z,14.53
2018-10-12T16:02:32.763Z,12.63
2018-10-12T16:05:01.714Z,12.17
2018-10-12T16:07:30.352Z,13.10
2018-10-12T16:09:59.006Z,13.07
2018-10-12T16:12:27.943Z,13.90
2018-10-12T16:14:56.572Z,13.30
2018-10-12T16:17:26.773Z,13.90
2018-10-12T16:19:55.437Z,16.80
2018-10-12T16:22:24.154Z,18.07
2018-10-12T16:25:04.158Z,16.20
2018-10-12T16:27:33.645Z,16.30
2018-10-12T16:30:02.286Z,16.77
2018-10-12T16:32:30.947Z,16.00
2018-10-12T16:34:59.723Z,16.70
2018-10-12T16:37:28.367Z,17.33
2018-10-12T16:39:57.021Z,19.83
2018-10-12T16:42:25.688Z,27.20
2018-10-12T16:44:54.384Z,24.67
2018-10-12T16:47:23.006Z,25.80
2018-10-12T16:49:51.870Z,26.23
2018-10-12T16:52:20.545Z,27.37
2018-10-12T16:54:49.295Z,35.17
2018-10-12T16:57:22.444Z,22.13
2018-10-12T16:59:51.291Z,16.17
2018-10-12T17:02:19.994Z,18.37
2018-10-12T17:04:48.852Z,27.20
2018-10-12T17:07:17.373Z,27.03
2018-10-12T17:09:46.106Z,30.60
2018-10-12T17:12:14.969Z,35.40
2018-10-12T17:14:43.615Z,42.67
2018-10-12T17:17:12.272Z,44.43
2018-10-12T17:19:40.903Z,39.63
2018-10-12T17:22:09.690Z,34.07
2018-10-12T17:24:38.338Z,34.83
2018-10-12T17:27:07.381Z,30.93
2018-10-12T17:29:36.195Z,29.43
2018-10-12T17:32:04.874Z,32.37
2018-10-12T17:34:33.899Z,34.40
2018-10-12T17:37:03.478Z,32.47
2018-10-12T17:39:33.211Z,34.43
2018-10-12T17:42:13.404Z,38.07
2018-10-12T17:44:42.124Z,40.10
2018-10-12T17:47:10.742Z,42.73
2018-10-12T17:49:39.501Z,44.70
2018-10-12T17:52:08.656Z,46.00
2018-10-12T17:54:37.459Z,45.93
2018-10-12T17:57:06.456Z,46.37
2018-10-12T17:59:35.269Z,52.30
2018-10-12T18:02:04.227Z,49.53
2018-10-12T18:04:33.359Z,47.77
2018-10-12T18:07:02.486Z,47.50
2018-10-12T18:09:31.115Z,44.93
2018-10-12T18:11:59.822Z,43.37
2018-10-12T18:14:28.636Z,38.37
2018-10-12T18:16:57.271Z,38.40
2018-10-12T18:19:25.897Z,35.83
2018-10-12T18:21:54.605Z,35.93
2018-10-12T18:24:23.243Z,35.40
2018-10-12T18:26:51.924Z,39.37
2018-10-12T18:29:20.596Z,41.13
2018-10-12T18:31:49.571Z,42.77
2018-10-12T18:34:18.232Z,41.07
2018-10-12T18:36:47.160Z,38.50
2018-10-12T18:39:16.720Z,39.07
2018-10-12T18:41:45.632Z,37.37
2018-10-12T18:44:14.298Z,36.30
2018-10-12T18:46:43.130Z,33.63
2018-10-12T18:49:11.867Z,32.20
2018-10-12T18:51:40.527Z,31.00
2018-10-12T18:54:09.141Z,32.60
2018-10-12T18:56:37.797Z,32.00
2018-10-12T18:59:06.460Z,32.40
2018-10-12T19:01:35.446Z,31.77
2018-10-12T19:04:04.368Z,32.50
2018-10-12T19:06:33.050Z,34.30
2018-10-12T19:09:01.962Z,33.27
2018-10-12T19:11:30.949Z,34.20
2018-10-12T19:13:59.828Z,34.03
2018-10-12T19:16:28.840Z,37.40
2018-10-12T19:18:57.795Z,35.80
2018-10-12T19:21:26.687Z,33.80
2018-10-12T19:23:55.720Z,34.67
2018-10-12T19:26:25.738Z,36.27
2018-10-12T19:28:54.465Z,37.07
2018-10-12T19:31:23.209Z,36.47
2018-10-12T19:33:51.779Z,37.63
2018-10-12T19:36:20.435Z,38.77
2018-10-12T19:38:49.143Z,35.10
2018-10-12T19:41:17.847Z,36.27
2018-10-12T19:43:46.506Z,36.87
2018-10-12T19:46:15.161Z,36.50
2018-10-12T19:48:43.857Z,38.67
2018-10-12T19:51:12.571Z,38.10
2018-10-12T19:53:41.206Z,37.63
2018-10-12T19:56:10.478Z,36.97
2018-10-12T19:58:39.615Z,41.83
2018-10-12T20:01:08.552Z,41.37
2018-10-12T20:03:40.940Z,38.40
2018-10-12T20:06:09.830Z,35.07
2018-10-12T20:08:39.796Z,34.70
2018-10-12T20:11:08.519Z,33.30
2018-10-12T20:13:38.453Z,36.57
2018-10-12T20:16:07.453Z,35.00
2018-10-12T20:18:36.215Z,32.33
2018-10-12T20:21:05.011Z,32.63
2018-10-12T20:23:33.707Z,31.47
2018-10-12T20:26:02.483Z,32.03
2018-10-12T20:28:31.529Z,29.77
2018-10-12T20:31:00.427Z,34.77
2018-10-12T20:33:29.585Z,35.53
2018-10-12T20:35:58.427Z,32.17
2018-10-12T20:38:28.947Z,32.57
2018-10-12T20:40:57.885Z,33.30
2018-10-12T20:43:26.611Z,32.27
2018-10-12T20:45:55.884Z,33.57
2018-10-12T20:48:24.872Z,31.17
2018-10-12T20:50:53.630Z,31.23
2018-10-12T20:53:22.296Z,31.30
2018-10-12T20:55:50.995Z,30.63
2018-10-12T20:58:21.345Z,29.10
2018-10-12T21:00:51.831Z,30.10
2018-10-12T21:03:20.622Z,27.27
2018-10-12T21:05:49.265Z,28.13
2018-10-12T21:08:18.222Z,28.13
2018-10-12T21:10:47.175Z,30.87
2018-10-12T21:13:15.877Z,29.10
2018-10-12T21:15:44.680Z,28.03
2018-10-12T21:18:14.120Z,25.77
2018-10-12T21:20:43.136Z,27.50
2018-10-12T21:23:12.237Z,25.07
2018-10-12T21:25:41.258Z,25.90
2018-10-12T21:28:09.985Z,24.37
2018-10-12T21:30:38.646Z,26.03
2018-10-12T21:33:07.797Z,26.60
2018-10-12T21:35:37.131Z,26.37
2018-10-12T21:38:05.839Z,25.47
2018-10-12T21:40:34.496Z,26.97
2018-10-12T21:43:03.159Z,26.90
2018-10-12T21:45:31.938Z,26.90
2018-10-12T21:48:00.651Z,24.97
2018-10-12T21:50:29.337Z,30.07
2018-10-12T21:52:58.266Z,27.80
2018-10-12T21:55:26.988Z,30.10
2018-10-12T21:57:55.660Z,27.70
2018-10-12T22:00:24.555Z,29.53
2018-10-12T22:02:53.392Z,26.77
2018-10-12T22:05:22.078Z,28.77
2018-10-12T22:07:50.744Z,28.37
2018-10-12T22:10:19.498Z,30.27
2018-10-12T22:12:48.257Z,30.93
2018-10-12T22:15:16.915Z,29.60
2018-10-12T22:17:45.710Z,28.30
2018-10-12T22:20:14.847Z,28.03
2018-10-12T22:22:44.287Z,29.60
2018-10-12T22:25:13.799Z,30.27
2018-10-12T22:27:42.451Z,28.87
2018-10-12T22:30:11.175Z,27.30
2018-10-12T22:32:40.389Z,28.23
2018-10-12T22:35:09.050Z,27.73
2018-10-12T22:37:37.736Z,26.10
2018-10-12T22:40:06.491Z,28.23
2018-10-12T22:42:35.168Z,27.60
2018-10-12T22:45:03.846Z,28.20
2018-10-12T22:47:32.665Z,27.00
2018-10-12T22:50:01.306Z,26.53
2018-10-12T22:52:29.915Z,25.00
2018-10-12T22:54:58.559Z,26.33
2018-10-12T22:57:27.222Z,26.90
2018-10-12T22:59:56.016Z,28.00
2018-10-12T23:02:24.652Z,27.50
2018-10-12T23:04:53.319Z,26.87
2018-10-12T23:07:21.974Z,27.10
2018-10-12T23:09:50.620Z,26.17
2018-10-12T23:12:19.298Z,27.50
2018-10-12T23:14:47.996Z,26.10
2018-10-12T23:17:16.671Z,28.93
2018-10-12T23:19:45.536Z,26.67
2018-10-12T23:22:14.266Z,27.23
2018-10-12T23:24:42.917Z,28.90
2018-10-12T23:27:11.696Z,26.87
2018-10-12T23:29:40.340Z,26.50
2018-10-12T23:32:10.035Z,26.47
2018-10-12T23:34:38.681Z,27.60
2018-10-12T23:37:07.336Z,25.90
2018-10-12T23:39:35.992Z,27.73
2018-10-12T23:42:04.594Z,28.03
2018-10-12T23:44:33.264Z,27.83
2018-10-12T23:47:01.929Z,28.37
2018-10-12T23:49:30.588Z,28.10
2018-10-12T23:51:59.279Z,26.83
2018-10-12T23:54:28.067Z,29.50
2018-10-12T23:56:56.694Z,26.57
2018-10-12T23:59:25.328Z,28.00
